Time,TemperatureF,DewpointF,PressureIn,WindDirection,WindDirectionDegrees,WindSpeedMPH,WindSpeedGustMPH,Humidity,HourlyPrecipIn,Conditions,Clouds,dailyrainin,SoftwareType,DateUTC
2013-04-23 00:07:00,45.9,35.2,30.42,NE,45,4.2,-999.0,66,-99.99,,,0.00,Acu-Link.com,2013-04-23 04:07:00,
2013-04-23 00:22:00,46.9,35.8,30.41,North,0,2.2,-999.0,65,-99.99,,,0.00,Acu-Link.com,2013-04-23 04:22:00,
2013-04-23 00:37:00,45.7,34.6,30.40,WNW,292,3.2,-999.0,65,-99.99,,,0.00,Acu-Link.com,2013-04-23 04:37:00,
2013-04-23 00:52:00,45.5,34.8,30.41,NW,315,9.4,-999.0,66,-99.99,,,0.00,Acu-Link.com,2013-04-23 04:52:00,
2013-04-23 01:08:00,45.1,34.8,30.40,NW,315,2.7,-999.0,67,-99.99,,,0.00,Acu-Link.com,2013-04-23 05:08:00,
2013-04-23 01:23:00,44.6,35.1,30.39,NW,315,4.2,-999.0,69,-99.99,,,0.00,Acu-Link.com,2013-04-23 05:23:00,
2013-04-23 01:38:00,45.5,35.6,30.39,West,270,3.2,-999.0,68,-99.99,,,0.00,Acu-Link.com,2013-04-23 05:38:00,
2013-04-23 01:53:00,45.3,36.1,30.39,NW,315,1.1,-999.0,70,-99.99,,,0.00,Acu-Link.com,2013-04-23 05:53:00,
2013-04-23 02:09:00,45.0,35.5,30.37,ESE,112,0.0,-999.0,69,-99.99,,,0.00,Acu-Link.com,2013-04-23 06:09:00,
2013-04-23 02:24:00,44.4,34.9,30.37,NE,45,2.2,-999.0,69,-99.99,,,0.00,Acu-Link.com,2013-04-23 06:24:00,
2013-04-23 02:39:00,44.2,35.0,30.36,West,270,4.7,-999.0,70,-99.99,,,0.00,Acu-Link.com,2013-04-23 06:39:00,
2013-04-23 02:54:00,44.2,35.4,30.36,NW,315,3.7,-999.0,71,-99.99,,,0.00,Acu-Link.com,2013-04-23 06:54:00,
2013-04-23 03:09:00,44.2,35.4,30.35,East,90,4.7,-999.0,71,-99.99,,,0.00,Acu-Link.com,2013-04-23 07:09:00,
2013-04-23 03:25:00,45.0,35.8,30.35,WNW,292,1.7,-999.0,70,-99.99,,,0.00,Acu-Link.com,2013-04-23 07:25:00,
2013-04-23 03:40:00,44.6,35.4,30.35,ENE,67,3.7,-999.0,70,-99.99,,,0.00,Acu-Link.com,2013-04-23 07:40:00,
2013-04-23 03:55:00,44.1,35.3,30.35,NNE,22,3.2,-999.0,71,-99.99,,,0.00,Acu-Link.com,2013-04-23 07:55:00,
2013-04-23 04:11:00,43.9,35.5,30.35,ENE,67,2.7,-999.0,72,-99.99,,,0.00,Acu-Link.com,2013-04-23 08:11:00,
2013-04-23 04:26:00,42.8,34.4,30.34,North,0,6.3,-999.0,72,-99.99,,,0.00,Acu-Link.com,2013-04-23 08:26:00,
2013-04-23 04:41:00,42.4,34.4,30.34,NW,315,11.4,-999.0,73,-99.99,,,0.00,Acu-Link.com,2013-04-23 08:41:00,
2013-04-23 04:56:00,42.3,34.3,30.34,NE,45,5.3,-999.0,73,-99.99,,,0.00,Acu-Link.com,2013-04-23 08:56:00,
2013-04-23 05:11:00,42.3,34.3,30.34,North,0,3.7,-999.0,73,-99.99,,,0.00,Acu-Link.com,2013-04-23 09:11:00,
2013-04-23 05:26:00,42.3,33.9,30.34,NW,315,6.3,-999.0,72,-99.99,,,0.00,Acu-Link.com,2013-04-23 09:26:00,
2013-04-23 05:42:00,42.1,33.4,30.34,East,90,5.8,-999.0,71,-99.99,,,0.00,Acu-Link.com,2013-04-23 09:42:00,
2013-04-23 05:57:00,41.9,33.5,30.33,North,0,7.3,-999.0,72,-99.99,,,0.00,Acu-Link.com,2013-04-23 09:57:00,
2013-04-23 06:12:00,42.1,33.4,30.33,North,0,5.3,-999.0,71,-99.99,,,0.00,Acu-Link.com,2013-04-23 10:12:00,
2013-04-23 06:27:00,42.1,33.4,30.34,SW,225,2.7,-999.0,71,-99.99,,,0.00,Acu-Link.com,2013-04-23 10:27:00,
2013-04-23 06:42:00,41.9,33.5,30.33,NNE,22,6.8,-999.0,72,-99.99,,,0.00,Acu-Link.com,2013-04-23 10:42:00,
2013-04-23 06:57:00,42.1,33.7,30.33,WNW,292,6.8,-999.0,72,-99.99,,,0.00,Acu-Link.com,2013-04-23 10:57:00,
2013-04-23 07:13:00,42.1,33.7,30.33,NNW,337,6.3,-999.0,72,-99.99,,,0.00,Acu-Link.com,2013-04-23 11:13:00,
2013-04-23 07:28:00,42.1,33.7,30.33,NNW,337,4.7,-999.0,72,-99.99,,,0.00,Acu-Link.com,2013-04-23 11:28:00,
2013-04-23 07:43:00,42.6,34.2,30.33,NNE,22,7.3,-999.0,72,-99.99,,,0.00,Acu-Link.com,2013-04-23 11:43:00,
2013-04-23 07:58:00,43.0,34.3,30.32,NNW,337,5.8,-999.0,71,-99.99,,,0.00,Acu-Link.com,2013-04-23 11:58:00,
2013-04-23 08:13:00,43.2,34.8,30.32,NNE,22,6.3,-999.0,72,-99.99,,,0.00,Acu-Link.com,2013-04-23 12:13:00,
2013-04-23 08:28:00,43.3,34.9,30.31,NNE,22,8.9,-999.0,72,-99.99,,,0.00,Acu-Link.com,2013-04-23 12:28:00,
2013-04-23 08:43:00,43.7,35.3,30.31,East,90,6.3,-999.0,72,-99.99,,,0.00,Acu-Link.com,2013-04-23 12:43:00,
2013-04-23 08:59:00,43.5,35.4,30.30,North,0,9.4,-999.0,73,-99.99,,,0.00,Acu-Link.com,2013-04-23 12:59:00,
2013-04-23 09:14:00,43.7,36.0,30.30,NNE,22,5.3,-999.0,74,-99.99,,,0.00,Acu-Link.com,2013-04-23 13:14:00,
2013-04-23 09:29:00,44.1,36.4,30.30,WNW,292,5.8,-999.0,74,-99.99,,,0.00,Acu-Link.com,2013-04-23 13:29:00,
2013-04-23 09:44:00,44.2,36.4,30.30,NNW,337,5.8,-999.0,74,-99.99,,,0.00,Acu-Link.com,2013-04-23 13:44:00,
2013-04-23 09:59:00,45.3,37.5,30.29,West,270,3.7,-999.0,74,-99.99,,,0.00,Acu-Link.com,2013-04-23 13:59:00,
2013-04-23 10:14:00,45.7,37.5,30.29,NNW,337,4.7,-999.0,73,-99.99,,,0.00,Acu-Link.com,2013-04-23 14:14:00,
2013-04-23 10:29:00,45.0,37.6,30.29,NNE,22,6.8,-999.0,75,-99.99,,,0.00,Acu-Link.com,2013-04-23 14:29:00,
2013-04-23 10:44:00,45.1,38.3,30.28,NNW,337,4.7,-999.0,77,-99.99,,,0.00,Acu-Link.com,2013-04-23 14:44:00,
2013-04-23 10:59:00,44.4,39.6,30.28,WNW,292,4.7,-999.0,83,-99.99,,,0.00,Acu-Link.com,2013-04-23 14:59:00,
2013-04-23 11:15:00,44.1,39.9,30.27,NNE,22,4.7,-999.0,85,-99.99,,,0.00,Acu-Link.com,2013-04-23 15:15:00,
2013-04-23 11:30:00,43.5,40.2,30.27,NW,315,5.8,-999.0,88,-99.99,,,0.00,Acu-Link.com,2013-04-23 15:30:00,
2013-04-23 11:45:00,44.2,40.6,30.26,NE,45,4.7,-999.0,87,-99.99,,,0.00,Acu-Link.com,2013-04-23 15:45:00,
2013-04-23 12:00:00,44.6,40.4,30.25,WNW,292,7.8,-999.0,85,-99.99,,,0.00,Acu-Link.com,2013-04-23 16:00:00,
2013-04-23 12:15:00,45.3,40.4,30.25,NW,315,11.9,-999.0,83,-99.99,,,0.00,Acu-Link.com,2013-04-23 16:15:00,
2013-04-23 12:30:00,46.4,40.6,30.24,West,270,8.3,-999.0,80,-99.99,,,0.00,Acu-Link.com,2013-04-23 16:30:00,
2013-04-23 12:46:00,46.0,40.2,30.23,NW,315,10.9,-999.0,80,-99.99,,,0.00,Acu-Link.com,2013-04-23 16:46:00,
2013-04-23 13:01:00,47.3,40.8,30.21,NW,315,6.3,-999.0,78,-99.99,,,0.00,Acu-Link.com,2013-04-23 17:01:00,
2013-04-23 13:16:00,47.3,40.8,30.20,WNW,292,4.7,-999.0,78,-99.99,,,0.00,Acu-Link.com,2013-04-23 17:16:00,
2013-04-23 13:31:00,48.6,41.4,30.19,NNW,337,6.8,-999.0,76,-99.99,,,0.00,Acu-Link.com,2013-04-23 17:31:00,
2013-04-23 13:46:00,48.2,41.0,30.19,NNW,337,6.3,-999.0,76,-99.99,,,0.00,Acu-Link.com,2013-04-23 17:46:00,
2013-04-23 14:02:00,50.2,41.9,30.18,NW,315,5.8,-999.0,73,-99.99,,,0.00,Acu-Link.com,2013-04-23 18:02:00,
2013-04-23 14:17:00,49.6,41.3,30.18,North,0,5.3,-999.0,73,-99.99,,,0.00,Acu-Link.com,2013-04-23 18:17:00,
2013-04-23 14:32:00,48.0,41.1,30.18,NNW,337,10.9,-999.0,77,-99.99,,,0.00,Acu-Link.com,2013-04-23 18:32:00,
2013-04-23 14:47:00,48.4,41.5,30.17,WNW,292,6.3,-999.0,77,-99.99,,,0.00,Acu-Link.com,2013-04-23 18:47:00,
2013-04-23 15:02:00,49.1,41.5,30.16,North,0,8.9,-999.0,75,-99.99,,,0.00,Acu-Link.com,2013-04-23 19:02:00,
2013-04-23 15:17:00,49.6,41.7,30.16,NNW,337,9.4,-999.0,74,-99.99,,,0.00,Acu-Link.com,2013-04-23 19:17:00,
2013-04-23 15:33:00,49.8,41.5,30.15,NNW,337,8.9,-999.0,73,-99.99,,,0.00,Acu-Link.com,2013-04-23 19:33:00,
2013-04-23 15:48:00,50.7,42.0,30.15,WNW,292,2.7,-999.0,72,-99.99,,,0.00,Acu-Link.com,2013-04-23 19:48:00,
2013-04-23 16:03:00,49.8,41.5,30.15,WNW,292,6.3,-999.0,73,-99.99,,,0.00,Acu-Link.com,2013-04-23 20:03:00,
2013-04-23 16:18:00,50.9,41.8,30.15,NNE,22,5.8,-999.0,71,-99.99,,,0.00,Acu-Link.com,2013-04-23 20:18:00,
2013-04-23 16:33:00,51.1,42.0,30.15,WNW,292,10.4,-999.0,71,-99.99,,,0.00,Acu-Link.com,2013-04-23 20:33:00,
2013-04-23 16:48:00,51.3,42.2,30.14,NW,315,6.8,-999.0,71,-99.99,,,0.00,Acu-Link.com,2013-04-23 20:48:00,
2013-04-23 17:04:00,51.8,42.7,30.14,NNW,337,8.9,-999.0,71,-99.99,,,0.00,Acu-Link.com,2013-04-23 21:04:00,
2013-04-23 17:19:00,52.2,42.7,30.14,WNW,292,7.3,-999.0,70,-99.99,,,0.00,Acu-Link.com,2013-04-23 21:19:00,
2013-04-23 17:34:00,52.5,43.0,30.13,SW,225,6.8,-999.0,70,-99.99,,,0.00,Acu-Link.com,2013-04-23 21:34:00,
2013-04-23 17:49:00,52.5,42.2,30.12,WNW,292,6.8,-999.0,68,-99.99,,,0.00,Acu-Link.com,2013-04-23 21:49:00,
2013-04-23 18:04:00,52.5,42.6,30.11,North,0,7.8,-999.0,69,-99.99,,,0.00,Acu-Link.com,2013-04-23 22:04:00,
2013-04-23 18:19:00,52.7,42.8,30.10,ESE,112,3.2,-999.0,69,-99.99,,,0.00,Acu-Link.com,2013-04-23 22:19:00,
2013-04-23 18:35:00,53.1,42.8,30.10,NNE,22,6.3,-999.0,68,-99.99,,,0.00,Acu-Link.com,2013-04-23 22:35:00,
2013-04-23 18:50:00,52.2,42.3,30.10,NNW,337,5.3,-999.0,69,-99.99,,,0.00,Acu-Link.com,2013-04-23 22:50:00,
2013-04-23 19:05:00,52.5,43.0,30.10,NNW,337,7.3,-999.0,70,-99.99,,,0.00,Acu-Link.com,2013-04-23 23:05:00,
2013-04-23 19:20:00,52.5,43.0,30.09,NNW,337,9.4,-999.0,70,-99.99,,,0.00,Acu-Link.com,2013-04-23 23:20:00,
2013-04-23 19:36:00,52.7,42.8,30.09,NNE,22,8.3,-999.0,69,-99.99,,,0.00,Acu-Link.com,2013-04-23 23:36:00,
2013-04-23 19:51:00,52.3,42.4,30.09,West,270,4.7,-999.0,69,-99.99,,,0.00,Acu-Link.com,2013-04-23 23:51:00,
2013-04-23 20:06:00,52.5,42.6,30.07,WNW,292,8.9,-999.0,69,-99.99,,,0.00,Acu-Link.com,2013-04-24 00:06:00,
2013-04-23 20:21:00,52.7,42.8,30.06,North,0,7.8,-999.0,69,-99.99,,,0.00,Acu-Link.com,2013-04-24 00:21:00,
2013-04-23 20:36:00,52.9,43.0,30.05,WNW,292,4.2,-999.0,69,-99.99,,,0.00,Acu-Link.com,2013-04-24 00:36:00,
2013-04-23 20:52:00,52.5,43.7,30.05,NE,45,5.3,-999.0,72,-99.99,,,0.00,Acu-Link.com,2013-04-24 00:52:00,
2013-04-23 21:07:00,51.8,42.3,30.05,North,0,3.7,-999.0,70,-99.99,,,0.00,Acu-Link.com,2013-04-24 01:07:00,
2013-04-23 21:22:00,51.4,42.7,30.06,WNW,292,5.3,-999.0,72,-99.99,,,0.00,Acu-Link.com,2013-04-24 01:22:00,
2013-04-23 21:38:00,51.4,42.7,30.07,NE,45,7.3,-999.0,72,-99.99,,,0.00,Acu-Link.com,2013-04-24 01:38:00,
2013-04-23 21:53:00,50.5,41.8,30.07,NW,315,11.4,-999.0,72,-99.99,,,0.00,Acu-Link.com,2013-04-24 01:53:00,
2013-04-23 22:08:00,50.2,41.9,30.06,NNW,337,7.3,-999.0,73,-99.99,,,0.00,Acu-Link.com,2013-04-24 02:08:00,
2013-04-23 22:23:00,50.0,42.0,30.06,East,90,3.7,-999.0,74,-99.99,,,0.00,Acu-Link.com,2013-04-24 02:23:00,
2013-04-23 22:38:00,49.8,41.9,30.05,NE,45,5.3,-999.0,74,-99.99,,,0.00,Acu-Link.com,2013-04-24 02:38:00,
2013-04-23 22:53:00,49.5,41.6,30.05,NW,315,4.2,-999.0,74,-99.99,,,0.00,Acu-Link.com,2013-04-24 02:53:00,
2013-04-23 23:08:00,49.3,41.7,30.04,NW,315,3.2,-999.0,75,-99.99,,,0.00,Acu-Link.com,2013-04-24 03:08:00,
2013-04-23 23:23:00,48.7,41.5,30.05,West,270,6.8,-999.0,76,-99.99,,,0.00,Acu-Link.com,2013-04-24 03:23:00,
2013-04-23 23:38:00,48.7,41.5,30.05,NNW,337,5.3,-999.0,76,-99.99,,,0.00,Acu-Link.com,2013-04-24 03:38:00,